Time,TemperatureF,DewpointF,PressureIn,WindDirection,WindDirectionDegrees,WindSpeedMPH,WindSpeedGustMPH,Humidity,HourlyPrecipIn,Conditions,Clouds,dailyrainin,SoftwareType,DateUTC
2013-01-25 00:01:00,51.6,42.5,29.57,NE,44,0.0,0.0,71,0.00,,---,0.00,VWS V14.01,2013-01-25 08:01:00,
2013-01-25 00:11:00,51.6,42.5,29.57,NE,44,0.0,0.0,71,0.00,,---,0.00,VWS V14.01,2013-01-25 08:11:00,
2013-01-25 00:16:00,51.6,42.9,29.57,NE,44,0.0,0.0,72,0.00,,---,0.00,VWS V14.01,2013-01-25 08:16:00,
2013-01-25 00:26:00,51.6,42.9,29.57,NE,44,0.0,0.0,72,0.00,,---,0.00,VWS V14.01,2013-01-25 08:26:00,
2013-01-25 00:36:00,51.4,43.0,29.57,NE,44,0.0,0.0,73,0.00,,---,0.00,VWS V14.01,2013-01-25 08:36:00,
2013-01-25 00:41:00,51.3,43.3,29.57,NE,44,0.0,0.0,74,0.00,,---,0.00,VWS V14.01,2013-01-25 08:41:00,
2013-01-25 00:51:00,51.1,43.8,29.57,NE,44,0.0,0.0,76,0.00,,---,0.00,VWS V14.01,2013-01-25 08:51:00,
2013-01-25 00:56:00,51.0,43.7,29.57,NE,44,0.0,0.0,76,0.00,,---,0.00,VWS V14.01,2013-01-25 08:56:00,
2013-01-25 01:01:00,51.0,43.7,29.58,NE,44,0.0,0.0,76,0.00,,---,0.00,VWS V14.01,2013-01-25 09:01:00,
2013-01-25 01:11:00,50.7,43.4,29.58,NE,44,0.0,0.0,76,0.00,,---,0.00,VWS V14.01,2013-01-25 09:11:00,
2013-01-25 01:16:00,50.7,43.8,29.59,NE,44,0.0,0.0,77,0.00,,---,0.00,VWS V14.01,2013-01-25 09:16:00,
2013-01-25 01:21:00,50.7,44.1,29.59,NE,44,0.0,0.0,78,0.00,,---,0.00,VWS V14.01,2013-01-25 09:21:00,
2013-01-25 01:26:00,50.5,43.9,29.59,NE,44,0.0,0.0,78,0.00,,---,0.00,VWS V14.01,2013-01-25 09:26:00,
2013-01-25 01:36:00,50.4,44.1,29.59,NE,44,0.0,0.0,79,0.00,,---,0.00,VWS V14.01,2013-01-25 09:36:00,
2013-01-25 01:46:00,50.2,44.0,29.59,NE,44,0.0,0.0,79,0.00,,---,0.00,VWS V14.01,2013-01-25 09:46:00,
2013-01-25 01:51:00,50.1,43.8,29.59,NE,44,0.0,0.0,79,0.00,,---,0.00,VWS V14.01,2013-01-25 09:51:00,
2013-01-25 01:56:00,50.1,43.8,29.59,NE,44,0.0,0.0,79,0.00,,---,0.00,VWS V14.01,2013-01-25 09:56:00,
2013-01-25 02:01:00,50.1,43.8,29.58,NE,44,0.0,0.0,79,0.00,,---,0.00,VWS V14.01,2013-01-25 10:01:00,
2013-01-25 02:06:00,50.1,43.8,29.58,NE,44,0.0,0.0,79,0.00,,---,0.00,VWS V14.01,2013-01-25 10:06:00,
2013-01-25 02:11:00,50.1,43.8,29.58,NE,44,0.0,0.0,79,0.00,,---,0.00,VWS V14.01,2013-01-25 10:11:00,
2013-01-25 02:16:00,50.1,43.8,29.59,NE,44,0.0,0.0,79,0.00,,---,0.00,VWS V14.01,2013-01-25 10:16:00,
2013-01-25 02:26:00,50.1,44.2,29.59,NE,44,0.0,0.0,80,0.00,,---,0.00,VWS V14.01,2013-01-25 10:26:00,
2013-01-25 02:31:00,49.9,44.0,29.58,NE,44,0.0,0.0,80,0.00,,---,0.00,VWS V14.01,2013-01-25 10:31:00,
2013-01-25 02:36:00,49.9,44.0,29.58,NE,44,0.0,0.0,80,0.00,,---,0.00,VWS V14.01,2013-01-25 10:36:00,
2013-01-25 02:41:00,49.9,44.0,29.58,NE,44,0.0,0.0,80,0.00,,---,0.00,VWS V14.01,2013-01-25 10:41:00,
2013-01-25 02:46:00,49.9,44.0,29.58,NE,44,0.0,0.0,80,0.00,,---,0.00,VWS V14.01,2013-01-25 10:46:00,
2013-01-25 02:56:00,49.8,43.9,29.58,NE,44,0.0,0.0,80,0.00,,---,0.00,VWS V14.01,2013-01-25 10:56:00,
2013-01-25 03:01:00,49.8,43.9,29.57,NE,44,0.0,0.0,80,0.00,,---,0.00,VWS V14.01,2013-01-25 11:01:00,
2013-01-25 03:11:00,49.8,44.2,29.57,NE,44,0.0,0.0,81,0.00,,---,0.00,VWS V14.01,2013-01-25 11:11:00,
2013-01-25 03:16:00,49.8,44.2,29.57,NE,44,0.0,0.0,81,0.00,,---,0.00,VWS V14.01,2013-01-25 11:16:00,
2013-01-25 03:26:00,49.8,44.2,29.57,NE,44,0.0,0.0,81,0.00,,---,0.00,VWS V14.01,2013-01-25 11:26:00,
2013-01-25 03:31:00,49.8,44.2,29.56,NE,44,0.0,0.0,81,0.00,,---,0.00,VWS V14.01,2013-01-25 11:31:00,
2013-01-25 03:36:00,49.9,44.0,29.56,NE,44,0.0,0.0,80,0.00,,---,0.00,VWS V14.01,2013-01-25 11:36:00,
2013-01-25 03:41:00,49.9,44.0,29.56,NE,44,0.0,0.0,80,0.00,,---,0.00,VWS V14.01,2013-01-25 11:41:00,
2013-01-25 03:51:00,49.9,44.0,29.56,NE,44,0.0,0.0,80,0.00,,---,0.00,VWS V14.01,2013-01-25 11:51:00,
2013-01-25 04:01:00,49.8,43.9,29.56,NE,44,0.0,0.0,80,0.00,,---,0.00,VWS V14.01,2013-01-25 12:01:00,
2013-01-25 04:06:00,49.8,43.9,29.56,NE,44,0.0,0.0,80,0.00,,---,0.00,VWS V14.01,2013-01-25 12:06:00,
2013-01-25 04:11:00,49.8,43.9,29.56,NE,44,0.0,0.0,80,0.00,,---,0.00,VWS V14.01,2013-01-25 12:11:00,
2013-01-25 04:16:00,49.8,43.9,29.56,NE,44,0.0,0.0,80,0.00,,---,0.00,VWS V14.01,2013-01-25 12:16:00,
2013-01-25 04:21:00,49.8,43.9,29.56,NE,44,0.0,0.0,80,0.00,,---,0.00,VWS V14.01,2013-01-25 12:21:00,
2013-01-25 04:26:00,49.8,43.9,29.56,NE,44,0.0,0.0,80,0.00,,---,0.00,VWS V14.01,2013-01-25 12:26:00,
2013-01-25 04:31:00,49.8,43.9,29.57,NE,44,0.0,0.0,80,0.00,,---,0.00,VWS V14.01,2013-01-25 12:31:00,
2013-01-25 04:36:00,49.8,43.9,29.57,NE,44,0.0,0.0,80,0.00,,---,0.00,VWS V14.01,2013-01-25 12:36:00,
2013-01-25 04:41:00,49.8,43.9,29.57,NE,42,0.0,0.0,80,0.00,,---,0.00,VWS V14.01,2013-01-25 12:41:00,
2013-01-25 04:51:00,49.6,44.0,29.56,NE,42,0.0,0.0,81,0.00,,---,0.00,VWS V14.01,2013-01-25 12:51:00,
2013-01-25 05:01:00,49.6,44.0,29.56,NE,42,0.0,0.0,81,0.00,,---,0.00,VWS V14.01,2013-01-25 13:01:00,
2013-01-25 05:11:00,49.6,44.0,29.56,NE,44,0.0,0.0,81,0.00,,---,0.00,VWS V14.01,2013-01-25 13:11:00,
2013-01-25 05:16:00,49.6,44.0,29.56,NE,44,0.0,0.0,81,0.00,,---,0.00,VWS V14.01,2013-01-25 13:16:00,
2013-01-25 05:26:00,49.6,44.0,29.56,NE,44,0.0,0.0,81,0.00,,---,0.00,VWS V14.01,2013-01-25 13:26:00,
2013-01-25 05:31:00,49.6,44.0,29.56,NE,44,0.0,0.0,81,0.00,,---,0.00,VWS V14.01,2013-01-25 13:31:00,
2013-01-25 05:41:00,49.8,44.2,29.56,NE,44,0.0,0.0,81,0.00,,---,0.00,VWS V14.01,2013-01-25 13:41:00,
2013-01-25 05:51:00,49.9,44.0,29.57,NE,44,0.0,0.0,80,0.00,,---,0.00,VWS V14.01,2013-01-25 13:51:00,
2013-01-25 06:01:00,49.9,44.0,29.57,NE,44,0.0,0.0,80,0.00,,---,0.00,VWS V14.01,2013-01-25 14:01:00,
2013-01-25 06:11:00,49.9,44.0,29.57,NE,44,0.0,0.0,80,0.00,,---,0.00,VWS V14.01,2013-01-25 14:11:00,
2013-01-25 06:21:00,49.9,44.0,29.57,NE,44,0.0,0.0,80,0.00,,---,0.00,VWS V14.01,2013-01-25 14:21:00,
2013-01-25 06:31:00,50.1,44.2,29.57,NE,44,0.0,0.0,80,0.00,,---,0.00,VWS V14.01,2013-01-25 14:31:00,
2013-01-25 06:36:00,50.1,44.2,29.57,NE,44,0.0,0.0,80,0.00,,---,0.00,VWS V14.01,2013-01-25 14:36:00,
2013-01-25 06:46:00,50.2,44.0,29.57,NE,42,0.0,0.0,79,0.00,,---,0.00,VWS V14.01,2013-01-25 14:46:00,
2013-01-25 06:51:00,50.2,44.0,29.57,NE,41,0.0,0.0,79,0.00,,---,0.00,VWS V14.01,2013-01-25 14:51:00,
2013-01-25 07:01:00,50.4,43.8,29.57,North,3,0.0,0.0,78,0.00,,---,0.00,VWS V14.01,2013-01-25 15:01:00,
2013-01-25 07:06:00,50.5,43.9,29.57,North,356,2.0,2.0,78,0.00,,---,0.00,VWS V14.01,2013-01-25 15:06:00,
2013-01-25 07:11:00,50.7,44.1,29.57,NNW,329,2.0,2.0,78,0.00,,---,0.00,VWS V14.01,2013-01-25 15:11:00,
2013-01-25 07:21:00,51.0,44.0,29.57,NW,319,1.0,3.0,77,0.00,,---,0.00,VWS V14.01,2013-01-25 15:21:00,
2013-01-25 07:26:00,51.3,44.0,29.57,NW,319,1.0,5.0,76,0.00,,---,0.00,VWS V14.01,2013-01-25 15:26:00,
2013-01-25 07:36:00,51.9,43.9,29.56,NW,319,0.0,0.0,74,0.00,,---,0.00,VWS V14.01,2013-01-25 15:36:00,
2013-01-25 07:41:00,52.2,43.8,29.56,NW,319,0.0,0.0,73,0.00,,---,0.00,VWS V14.01,2013-01-25 15:41:00,
2013-01-25 07:46:00,52.6,44.2,29.56,NW,319,0.0,0.0,73,0.00,,---,0.00,VWS V14.01,2013-01-25 15:46:00,
2013-01-25 07:51:00,52.9,44.1,29.56,NW,319,0.0,0.0,72,0.00,,---,0.00,VWS V14.01,2013-01-25 15:51:00,
2013-01-25 07:56:00,53.3,44.2,29.56,NW,319,0.0,0.0,71,0.00,,---,0.00,VWS V14.01,2013-01-25 15:56:00,
2013-01-25 08:06:00,54.1,44.2,29.55,NW,319,0.0,2.0,69,0.00,,---,0.00,VWS V14.01,2013-01-25 16:06:00,
2013-01-25 08:11:00,54.5,44.2,29.55,NW,319,0.0,1.0,68,0.00,,---,0.00,VWS V14.01,2013-01-25 16:11:00,
2013-01-25 08:21:00,55.4,44.2,29.55,NW,319,0.0,0.0,66,0.00,,---,0.00,VWS V14.01,2013-01-25 16:21:00,
2013-01-25 08:31:00,56.2,43.8,29.56,NW,319,0.0,0.0,63,0.00,,---,0.00,VWS V14.01,2013-01-25 16:31:00,
2013-01-25 08:36:00,56.3,43.9,29.56,NW,319,0.0,0.0,63,0.00,,---,0.00,VWS V14.01,2013-01-25 16:36:00,
2013-01-25 08:46:00,56.9,43.6,29.55,NW,319,0.0,0.0,61,0.00,,---,0.00,VWS V14.01,2013-01-25 16:46:00,
2013-01-25 08:51:00,57.2,43.5,29.55,NW,319,0.0,0.0,60,0.00,,---,0.00,VWS V14.01,2013-01-25 16:51:00,
2013-01-25 08:56:00,57.5,43.3,29.55,NW,319,0.0,0.0,59,0.00,,---,0.00,VWS V14.01,2013-01-25 16:56:00,
2013-01-25 09:06:00,57.6,43.0,29.55,NW,306,0.0,0.0,58,0.00,,---,0.00,VWS V14.01,2013-01-25 17:06:00,
2013-01-25 09:16:00,58.3,43.2,29.56,SW,227,0.0,0.0,57,0.00,,---,0.00,VWS V14.01,2013-01-25 17:16:00,
2013-01-25 09:21:00,58.1,43.0,29.56,South,191,0.0,0.0,57,0.00,,---,0.00,VWS V14.01,2013-01-25 17:21:00,
2013-01-25 09:26:00,58.0,42.4,29.56,SSE,154,0.0,2.0,56,0.00,,---,0.00,VWS V14.01,2013-01-25 17:26:00,
2013-01-25 09:36:00,58.0,42.4,29.56,SSE,154,0.0,1.0,56,0.00,,---,0.00,VWS V14.01,2013-01-25 17:36:00,
2013-01-25 09:41:00,58.6,43.0,29.56,SSE,154,0.0,0.0,56,0.00,,---,0.00,VWS V14.01,2013-01-25 17:41:00,
2013-01-25 09:46:00,59.0,42.4,29.55,SSE,154,0.0,0.0,54,0.00,,---,0.00,VWS V14.01,2013-01-25 17:46:00,
2013-01-25 09:56:00,59.9,42.7,29.55,SSE,154,0.0,0.0,53,0.00,,---,0.00,VWS V14.01,2013-01-25 17:56:00,
2013-01-25 10:06:00,60.5,42.3,29.55,SSE,154,0.0,0.0,51,0.00,,---,0.00,VWS V14.01,2013-01-25 18:06:00,
2013-01-25 10:11:00,61.2,43.0,29.55,SSE,154,2.0,2.0,51,0.00,,---,0.00,VWS V14.01,2013-01-25 18:11:00,
2013-01-25 10:16:00,60.7,42.0,29.55,SSE,155,0.0,2.0,50,0.00,,---,0.00,VWS V14.01,2013-01-25 18:16:00,
2013-01-25 10:21:00,61.3,42.5,29.55,SSE,155,0.0,0.0,50,0.00,,---,0.00,VWS V14.01,2013-01-25 18:21:00,
2013-01-25 10:31:00,61.6,42.8,29.54,NW,304,0.0,3.0,50,0.00,,---,0.00,VWS V14.01,2013-01-25 18:31:00,
2013-01-25 10:41:00,62.0,42.1,29.54,NW,304,1.0,2.0,48,0.00,,---,0.00,VWS V14.01,2013-01-25 18:41:00,
2013-01-25 10:51:00,62.0,43.2,29.53,NNW,332,0.0,0.0,50,0.00,,---,0.00,VWS V14.01,2013-01-25 18:51:00,
2013-01-25 10:56:00,61.6,42.3,29.53,ENE,69,1.0,2.0,49,0.00,,---,0.00,VWS V14.01,2013-01-25 18:56:00,
2013-01-25 11:01:00,61.3,42.5,29.53,ENE,68,0.0,1.0,50,0.00,,---,0.00,VWS V14.01,2013-01-25 19:01:00,
2013-01-25 11:11:00,61.3,42.5,29.53,NNE,25,0.0,2.0,50,0.00,,---,0.00,VWS V14.01,2013-01-25 19:11:00,
2013-01-25 11:16:00,61.5,42.7,29.51,NNE,25,1.0,1.0,50,0.00,,---,0.00,VWS V14.01,2013-01-25 19:16:00,
2013-01-25 11:26:00,61.8,42.5,29.51,NNE,25,0.0,1.0,49,0.00,,---,0.00,VWS V14.01,2013-01-25 19:26:00,
2013-01-25 11:31:00,62.1,43.3,29.50,NNE,25,0.0,1.0,50,0.00,,---,0.00,VWS V14.01,2013-01-25 19:31:00,
2013-01-25 11:36:00,62.6,42.7,29.50,NNE,25,0.0,1.0,48,0.00,,---,0.00,VWS V14.01,2013-01-25 19:36:00,
2013-01-25 11:46:00,63.2,42.7,29.49,NNE,25,0.0,1.0,47,0.00,,---,0.00,VWS V14.01,2013-01-25 19:46:00,
2013-01-25 11:56:00,63.2,42.7,29.49,NW,318,0.0,3.0,47,0.00,,---,0.00,VWS V14.01,2013-01-25 19:56:00,
2013-01-25 12:01:00,62.9,42.4,29.48,NNW,342,5.0,6.0,47,0.00,,---,0.00,VWS V14.01,2013-01-25 20:01:00,
2013-01-25 12:06:00,63.1,43.1,29.48,NNW,330,0.0,5.0,48,0.00,,---,0.00,VWS V14.01,2013-01-25 20:06:00,
2013-01-25 12:11:00,63.2,42.7,29.48,North,6,0.0,3.0,47,0.00,,---,0.00,VWS V14.01,2013-01-25 20:11:00,
2013-01-25 12:21:00,63.9,43.3,29.47,ENE,69,2.0,4.0,47,0.00,,---,0.00,VWS V14.01,2013-01-25 20:21:00,
2013-01-25 12:31:00,63.9,42.7,29.45,NNE,31,0.0,2.0,46,0.00,,---,0.00,VWS V14.01,2013-01-25 20:31:00,
2013-01-25 12:41:00,64.5,42.1,29.45,North,356,0.0,3.0,44,0.00,,---,0.00,VWS V14.01,2013-01-25 20:41:00,
2013-01-25 12:46:00,64.7,42.3,29.44,NNE,24,2.0,3.0,44,0.00,,---,0.00,VWS V14.01,2013-01-25 20:46:00,
2013-01-25 12:51:00,64.5,42.7,29.44,East,88,2.0,5.0,45,0.00,,---,0.00,VWS V14.01,2013-01-25 20:51:00,
2013-01-25 13:01:00,65.3,42.2,29.43,ENE,75,0.0,5.0,43,0.00,,---,0.00,VWS V14.01,2013-01-25 21:01:00,
2013-01-25 13:06:00,64.8,41.8,29.43,ESE,104,4.0,5.0,43,0.00,,---,0.00,VWS V14.01,2013-01-25 21:06:00,
2013-01-25 13:11:00,64.2,41.8,29.43,East,92,4.0,7.0,44,0.00,,---,0.00,VWS V14.01,2013-01-25 21:11:00,
2013-01-25 13:16:00,64.2,41.8,29.43,East,90,2.0,8.0,44,0.00,,---,0.00,VWS V14.01,2013-01-25 21:16:00,
2013-01-25 13:26:00,65.0,42.0,29.43,East,88,3.0,6.0,43,0.00,,---,0.00,VWS V14.01,2013-01-25 21:26:00,
2013-01-25 13:31:00,64.7,41.7,29.43,SE,136,2.0,6.0,43,0.00,,---,0.00,VWS V14.01,2013-01-25 21:31:00,
2013-01-25 13:41:00,64.2,41.8,29.43,East,80,0.0,6.0,44,0.00,,---,0.00,VWS V14.01,2013-01-25 21:41:00,
2013-01-25 13:46:00,64.0,41.7,29.42,ENE,64,3.0,8.0,44,0.00,,---,0.00,VWS V14.01,2013-01-25 21:46:00,
2013-01-25 13:56:00,63.7,42.0,29.42,NE,51,2.0,6.0,45,0.00,,---,0.00,VWS V14.01,2013-01-25 21:56:00,
2013-01-25 14:01:00,63.7,42.0,29.42,NNE,25,0.0,3.0,45,0.00,,---,0.00,VWS V14.01,2013-01-25 22:01:00,
2013-01-25 14:06:00,63.9,42.2,29.42,East,80,0.0,3.0,45,0.00,,---,0.00,VWS V14.01,2013-01-25 22:06:00,
2013-01-25 14:11:00,64.0,41.7,29.42,ENE,75,1.0,3.0,44,0.00,,---,0.00,VWS V14.01,2013-01-25 22:11:00,
2013-01-25 14:16:00,63.9,42.2,29.42,ENE,62,1.0,4.0,45,0.00,,---,0.00,VWS V14.01,2013-01-25 22:16:00,
2013-01-25 14:26:00,63.5,42.4,29.42,NE,40,0.0,5.0,46,0.00,,---,0.00,VWS V14.01,2013-01-25 22:26:00,
2013-01-25 14:31:00,63.7,42.5,29.41,ENE,61,0.0,3.0,46,0.00,,---,0.00,VWS V14.01,2013-01-25 22:31:00,
2013-01-25 14:41:00,63.5,42.4,29.41,East,83,3.0,6.0,46,0.00,,---,0.00,VWS V14.01,2013-01-25 22:41:00,
2013-01-25 14:51:00,63.4,42.3,29.41,ENE,61,1.0,6.0,46,0.00,,---,0.00,VWS V14.01,2013-01-25 22:51:00,
2013-01-25 14:56:00,63.5,42.9,29.41,ENE,61,0.0,3.0,47,0.00,,---,0.00,VWS V14.01,2013-01-25 22:56:00,
2013-01-25 15:01:00,63.7,42.5,29.40,NNE,30,1.0,3.0,46,0.00,,---,0.00,VWS V14.01,2013-01-25 23:01:00,
2013-01-25 15:11:00,63.7,42.5,29.40,ENE,59,0.0,2.0,46,0.00,,---,0.00,VWS V14.01,2013-01-25 23:11:00,
2013-01-25 15:16:00,63.5,42.4,29.41,ENE,65,0.0,3.0,46,0.00,,---,0.00,VWS V14.01,2013-01-25 23:16:00,
2013-01-25 15:21:00,63.5,42.9,29.41,ENE,58,0.0,2.0,47,0.00,,---,0.00,VWS V14.01,2013-01-25 23:21:00,
2013-01-25 15:31:00,63.4,42.3,29.41,ENE,58,0.0,2.0,46,0.00,,---,0.00,VWS V14.01,2013-01-25 23:31:00,
2013-01-25 15:41:00,63.2,42.7,29.41,NE,56,0.0,2.0,47,0.00,,---,0.00,VWS V14.01,2013-01-25 23:41:00,
2013-01-25 15:46:00,63.1,42.6,29.41,ENE,64,2.0,3.0,47,0.00,,---,0.00,VWS V14.01,2013-01-25 23:46:00,
2013-01-25 15:51:00,62.9,42.4,29.41,East,85,0.0,5.0,47,0.00,,---,0.00,VWS V14.01,2013-01-25 23:51:00,
2013-01-25 16:01:00,62.9,42.9,29.40,ENE,66,0.0,0.0,48,0.00,,---,0.00,VWS V14.01,2013-01-26 00:01:00,
2013-01-25 16:11:00,62.7,42.8,29.40,ENE,72,1.0,3.0,48,0.00,,---,0.00,VWS V14.01,2013-01-26 00:11:00,
2013-01-25 16:16:00,62.7,42.8,29.40,ENE,73,1.0,5.0,48,0.00,,---,0.00,VWS V14.01,2013-01-26 00:16:00,
2013-01-25 16:21:00,62.6,42.7,29.40,ENE,71,0.0,1.0,48,0.00,,---,0.00,VWS V14.01,2013-01-26 00:21:00,
2013-01-25 16:26:00,62.6,42.7,29.40,ENE,68,0.0,1.0,48,0.00,,---,0.00,VWS V14.01,2013-01-26 00:26:00,
2013-01-25 16:31:00,62.6,43.2,29.40,ENE,69,0.0,2.0,49,0.00,,---,0.00,VWS V14.01,2013-01-26 00:31:00,
2013-01-25 16:36:00,62.4,43.0,29.40,ENE,68,0.0,0.0,49,0.00,,---,0.00,VWS V14.01,2013-01-26 00:36:00,
2013-01-25 16:41:00,62.4,43.0,29.40,ENE,68,0.0,0.0,49,0.00,,---,0.00,VWS V14.01,2013-01-26 00:41:00,
2013-01-25 16:46:00,62.4,43.0,29.40,ENE,68,0.0,1.0,49,0.00,,---,0.00,VWS V14.01,2013-01-26 00:46:00,
2013-01-25 16:56:00,62.3,44.0,29.40,ENE,68,0.0,0.0,51,0.00,,---,0.00,VWS V14.01,2013-01-26 00:56:00,
2013-01-25 17:06:00,62.0,44.7,29.40,ENE,68,0.0,0.0,53,0.00,,---,0.00,VWS V14.01,2013-01-26 01:06:00,
2013-01-25 17:11:00,61.8,45.0,29.40,ENE,68,0.0,0.0,54,0.00,,---,0.00,VWS V14.01,2013-01-26 01:11:00,
2013-01-25 17:16:00,61.6,45.8,29.40,ENE,68,0.0,0.0,56,0.00,,---,0.00,VWS V14.01,2013-01-26 01:16:00,
2013-01-25 17:21:00,61.3,46.0,29.40,ENE,68,0.0,0.0,57,0.00,,---,0.00,VWS V14.01,2013-01-26 01:21:00,
2013-01-25 17:26:00,61.2,45.9,29.40,ENE,68,0.0,0.0,57,0.00,,---,0.00,VWS V14.01,2013-01-26 01:26:00,
2013-01-25 17:31:00,61.0,46.6,29.40,ENE,68,0.0,0.0,59,0.00,,---,0.00,VWS V14.01,2013-01-26 01:31:00,
2013-01-25 17:36:00,60.7,45.8,29.40,ENE,69,0.0,0.0,58,0.00,,---,0.00,VWS V14.01,2013-01-26 01:36:00,
2013-01-25 17:46:00,60.5,45.7,29.40,ENE,69,0.0,0.0,58,0.00,,---,0.00,VWS V14.01,2013-01-26 01:46:00,
2013-01-25 17:51:00,60.5,46.6,29.40,ENE,68,0.0,0.0,60,0.00,,---,0.00,VWS V14.01,2013-01-26 01:51:00,
2013-01-25 17:56:00,60.4,46.5,29.40,ENE,69,0.0,1.0,60,0.00,,---,0.00,VWS V14.01,2013-01-26 01:56:00,
2013-01-25 18:01:00,60.2,46.3,29.40,ENE,68,0.0,0.0,60,0.00,,---,0.00,VWS V14.01,2013-01-26 02:01:00,
2013-01-25 18:11:00,60.1,47.0,29.40,ENE,68,0.0,0.0,62,0.00,,---,0.00,VWS V14.01,2013-01-26 02:11:00,
2013-01-25 18:16:00,59.9,46.9,29.40,ENE,68,0.0,0.0,62,0.00,,---,0.00,VWS V14.01,2013-01-26 02:16:00,
2013-01-25 18:21:00,59.9,46.4,29.40,NE,56,0.0,1.0,61,0.00,,---,0.00,VWS V14.01,2013-01-26 02:21:00,
2013-01-25 18:31:00,59.9,46.9,29.40,NE,55,0.0,0.0,62,0.00,,---,0.00,VWS V14.01,2013-01-26 02:31:00,
2013-01-25 18:41:00,59.6,46.6,29.40,NE,55,0.0,0.0,62,0.00,,---,0.00,VWS V14.01,2013-01-26 02:41:00,
2013-01-25 18:46:00,59.6,46.6,29.39,NE,55,0.0,0.0,62,0.00,,---,0.00,VWS V14.01,2013-01-26 02:46:00,
2013-01-25 18:51:00,59.5,46.5,29.39,NE,55,0.0,0.0,62,0.00,,---,0.00,VWS V14.01,2013-01-26 02:51:00,
2013-01-25 19:01:00,59.5,46.1,29.39,NE,55,0.0,0.0,61,0.00,,---,0.00,VWS V14.01,2013-01-26 03:01:00,
2013-01-25 19:11:00,59.5,46.5,29.39,NNE,28,0.0,0.0,62,0.00,,---,0.00,VWS V14.01,2013-01-26 03:11:00,
2013-01-25 19:16:00,59.5,46.5,29.38,NNE,28,0.0,0.0,62,0.00,,---,0.00,VWS V14.01,2013-01-26 03:16:00,
2013-01-25 19:21:00,59.3,46.7,29.38,NNE,28,0.0,0.0,63,0.00,,---,0.00,VWS V14.01,2013-01-26 03:21:00,
2013-01-25 19:26:00,59.2,46.6,29.38,NNE,28,0.0,0.0,63,0.00,,---,0.00,VWS V14.01,2013-01-26 03:26:00,
2013-01-25 19:36:00,59.0,46.8,29.38,NNE,28,0.0,0.0,64,0.00,,---,0.00,VWS V14.01,2013-01-26 03:36:00,
2013-01-25 19:41:00,58.9,46.8,29.38,NNE,28,0.0,0.0,64,0.00,,---,0.00,VWS V14.01,2013-01-26 03:41:00,
2013-01-25 19:51:00,58.7,46.6,29.38,NNE,28,0.0,0.0,64,0.00,,---,0.00,VWS V14.01,2013-01-26 03:51:00,
2013-01-25 19:56:00,58.6,46.9,29.38,NNE,28,0.0,0.0,65,0.00,,---,0.00,VWS V14.01,2013-01-26 03:56:00,
2013-01-25 20:01:00,58.6,46.9,29.38,NNE,28,0.0,0.0,65,0.00,,---,0.00,VWS V14.01,2013-01-26 04:01:00,
2013-01-25 20:11:00,58.4,47.1,29.38,NNE,28,0.0,0.0,66,0.00,,---,0.00,VWS V14.01,2013-01-26 04:11:00,
2013-01-25 20:16:00,58.3,47.4,29.37,NNE,28,0.0,0.0,67,0.00,,---,0.00,VWS V14.01,2013-01-26 04:16:00,
2013-01-25 20:21:00,58.3,47.4,29.37,NNE,28,0.0,0.0,67,0.00,,---,0.00,VWS V14.01,2013-01-26 04:21:00,
2013-01-25 20:26:00,58.3,47.8,29.37,NNE,28,0.0,0.0,68,0.00,,---,0.00,VWS V14.01,2013-01-26 04:26:00,
2013-01-25 20:36:00,58.1,47.6,29.37,NNE,28,0.0,0.0,68,0.00,,---,0.00,VWS V14.01,2013-01-26 04:36:00,
2013-01-25 20:41:00,58.1,47.6,29.37,NNE,28,0.0,0.0,68,0.00,,---,0.00,VWS V14.01,2013-01-26 04:41:00,
2013-01-25 20:46:00,58.1,47.6,29.37,NNE,28,0.0,0.0,68,0.00,,---,0.00,VWS V14.01,2013-01-26 04:46:00,
2013-01-25 20:51:00,58.1,47.6,29.37,NNE,28,0.0,0.0,68,0.00,,---,0.00,VWS V14.01,2013-01-26 04:51:00,
2013-01-25 21:01:00,58.0,47.9,29.38,NNE,28,0.0,0.0,69,0.00,,---,0.00,VWS V14.01,2013-01-26 05:01:00,
2013-01-25 21:11:00,57.8,47.7,29.38,NNE,28,0.0,0.0,69,0.00,,---,0.00,VWS V14.01,2013-01-26 05:11:00,
2013-01-25 21:16:00,57.6,47.9,29.37,NNE,28,0.0,0.0,70,0.00,,---,0.00,VWS V14.01,2013-01-26 05:16:00,
2013-01-25 21:21:00,57.5,47.8,29.37,NNE,28,0.0,0.0,70,0.00,,---,0.00,VWS V14.01,2013-01-26 05:21:00,
2013-01-25 21:26:00,57.5,48.2,29.37,NNE,28,0.0,0.0,71,0.00,,---,0.00,VWS V14.01,2013-01-26 05:26:00,
2013-01-25 21:36:00,57.3,48.7,29.37,NNE,28,0.0,0.0,73,0.00,,---,0.00,VWS V14.01,2013-01-26 05:36:00,
2013-01-25 21:41:00,57.2,49.4,29.37,NNE,28,0.0,0.0,75,0.00,,---,0.00,VWS V14.01,2013-01-26 05:41:00,
2013-01-25 21:46:00,57.0,49.5,29.37,NNE,28,0.0,0.0,76,0.00,,---,0.00,VWS V14.01,2013-01-26 05:46:00,
2013-01-25 21:56:00,56.9,50.1,29.37,NNE,28,0.0,0.0,78,0.00,,---,0.00,VWS V14.01,2013-01-26 05:56:00,
2013-01-25 22:06:00,56.6,50.2,29.37,NNE,28,0.0,0.0,79,0.01,,---,0.01,VWS V14.01,2013-01-26 06:06:00,
2013-01-25 22:16:00,56.5,50.4,29.36,NNE,28,0.0,0.0,80,0.01,,---,0.01,VWS V14.01,2013-01-26 06:16:00,
2013-01-25 22:21:00,56.5,50.4,29.36,NNE,24,0.0,0.0,80,0.01,,---,0.01,VWS V14.01,2013-01-26 06:21:00,
2013-01-25 22:31:00,56.3,50.2,29.37,NNW,330,0.0,0.0,80,0.01,,---,0.01,VWS V14.01,2013-01-26 06:31:00,
2013-01-25 22:36:00,56.2,50.1,29.37,WNW,301,0.0,3.0,80,0.01,,---,0.01,VWS V14.01,2013-01-26 06:36:00,
2013-01-25 22:41:00,56.2,50.1,29.37,WNW,301,1.0,2.0,80,0.01,,---,0.01,VWS V14.01,2013-01-26 06:41:00,
2013-01-25 22:46:00,56.2,49.8,29.36,WNW,301,0.0,2.0,79,0.01,,---,0.01,VWS V14.01,2013-01-26 06:46:00,
2013-01-25 22:56:00,56.2,50.1,29.36,WNW,301,0.0,0.0,80,0.01,,---,0.01,VWS V14.01,2013-01-26 06:56:00,
2013-01-25 23:01:00,56.0,49.9,29.36,WNW,299,0.0,0.0,80,0.01,,---,0.01,VWS V14.01,2013-01-26 07:01:00,
2013-01-25 23:11:00,56.0,49.9,29.36,WNW,299,0.0,0.0,80,0.00,,---,0.01,VWS V14.01,2013-01-26 07:11:00,
2013-01-25 23:16:00,56.0,50.3,29.35,WNW,299,0.0,0.0,81,0.00,,---,0.01,VWS V14.01,2013-01-26 07:16:00,
2013-01-25 23:21:00,55.9,50.2,29.35,WNW,299,0.0,0.0,81,0.00,,---,0.01,VWS V14.01,2013-01-26 07:21:00,
2013-01-25 23:26:00,55.7,50.3,29.35,WNW,301,2.0,3.0,82,0.00,,---,0.01,VWS V14.01,2013-01-26 07:26:00,
2013-01-25 23:31:00,55.6,50.2,29.34,WNW,301,0.0,4.0,82,0.01,,---,0.02,VWS V14.01,2013-01-26 07:31:00,
2013-01-25 23:41:00,55.3,50.6,29.34,WNW,299,2.0,3.0,84,0.01,,---,0.02,VWS V14.01,2013-01-26 07:41:00,
2013-01-25 23:46:00,55.1,50.4,29.34,WNW,299,0.0,3.0,84,0.02,,---,0.03,VWS V14.01,2013-01-26 07:46:00,
2013-01-25 23:51:00,55.0,50.6,29.34,WNW,299,0.0,0.0,85,0.02,,---,0.03,VWS V14.01,2013-01-26 07:51:00,